sensor_id;sensor_type;location;lat;lon;timestamp;pressure;altitude;pressure_sealevel;temperature;humidity
30935;BME280;51033;42.648;23.292;2023-01-08T00:00:47;94309.50;;;3.23;52.27
30935;BME280;51033;42.648;23.292;2023-01-08T00:03:13;94338.59;;;3.54;52.21
30935;BME280;51033;42.648;23.292;2023-01-08T00:05:39;94314.06;;;3.43;51.83
30935;BME280;51033;42.648;23.292;2023-01-08T00:08:05;94337.72;;;3.43;52.26
30935;BME280;51033;42.648;23.292;2023-01-08T00:10:35;94324.59;;;3.43;52.03
30935;BME280;51033;42.648;23.292;2023-01-08T00:13:01;94323.50;;;3.34;52.12
30935;BME280;51033;42.648;23.292;2023-01-08T00:15:27;94331.94;;;3.36;52.32
30935;BME280;51033;42.648;23.292;2023-01-08T00:17:54;94329.56;;;3.39;52.37
30935;BME280;51033;42.648;23.292;2023-01-08T00:20:19;94314.78;;;3.28;52.29
30935;BME280;51033;42.648;23.292;2023-01-08T00:22:47;94313.97;;;3.18;52.19
30935;BME280;51033;42.648;23.292;2023-01-08T00:25:13;94271.00;;;2.97;51.75
30935;BME280;51033;42.648;23.292;2023-01-08T00:27:38;94333.72;;;3.25;51.93
30935;BME280;51033;42.648;23.292;2023-01-08T00:30:04;94327.72;;;3.35;51.74
30935;BME280;51033;42.648;23.292;2023-01-08T00:32:29;94300.50;;;3.14;51.84
30935;BME280;51033;42.648;23.292;2023-01-08T00:34:55;94321.34;;;3.26;51.67
30935;BME280;51033;42.648;23.292;2023-01-08T00:37:20;94315.34;;;3.30;51.69
30935;BME280;51033;42.648;23.292;2023-01-08T00:39:46;94329.53;;;3.34;51.51
30935;BME280;51033;42.648;23.292;2023-01-08T00:42:11;94335.81;;;3.28;51.77
30935;BME280;51033;42.648;23.292;2023-01-08T00:44:36;94334.31;;;3.37;51.71
30935;BME280;51033;42.648;23.292;2023-01-08T00:47:02;94315.81;;;3.22;52.04
30935;BME280;51033;42.648;23.292;2023-01-08T00:49:27;94329.78;;;3.28;51.94
30935;BME280;51033;42.648;23.292;2023-01-08T00:51:53;94324.19;;;3.19;51.79
30935;BME280;51033;42.648;23.292;2023-01-08T00:54:18;94284.66;;;2.99;52.10
30935;BME280;51033;42.648;23.292;2023-01-08T00:56:44;94326.78;;;3.09;52.23
30935;BME280;51033;42.648;23.292;2023-01-08T00:59:09;94339.00;;;3.30;51.87
30935;BME280;51033;42.648;23.292;2023-01-08T01:01:35;94334.81;;;3.34;51.84
30935;BME280;51033;42.648;23.292;2023-01-08T01:04:00;94332.16;;;3.29;51.54
30935;BME280;51033;42.648;23.292;2023-01-08T01:06:26;94346.63;;;3.32;51.71
30935;BME280;51033;42.648;23.292;2023-01-08T01:08:51;94322.16;;;3.26;51.71
30935;BME280;51033;42.648;23.292;2023-01-08T01:11:19;94341.03;;;3.18;52.24
30935;BME280;51033;42.648;23.292;2023-01-08T01:13:46;94327.25;;;3.01;52.31
30935;BME280;51033;42.648;23.292;2023-01-08T01:16:11;94335.19;;;3.11;52.11
30935;BME280;51033;42.648;23.292;2023-01-08T01:18:36;94274.06;;;2.79;52.13
30935;BME280;51033;42.648;23.292;2023-01-08T01:21:30;94327.38;;;3.21;52.03
30935;BME280;51033;42.648;23.292;2023-01-08T01:23:55;94336.81;;;3.17;52.17
30935;BME280;51033;42.648;23.292;2023-01-08T01:26:22;94330.47;;;3.08;52.34
30935;BME280;51033;42.648;23.292;2023-01-08T01:28:50;94328.88;;;3.07;52.37
30935;BME280;51033;42.648;23.292;2023-01-08T01:31:16;94329.63;;;3.03;52.69
30935;BME280;51033;42.648;23.292;2023-01-08T01:33:42;94330.94;;;3.05;52.51
30935;BME280;51033;42.648;23.292;2023-01-08T01:36:10;94308.59;;;2.97;52.61
30935;BME280;51033;42.648;23.292;2023-01-08T01:38:35;94329.44;;;3.14;52.49
30935;BME280;51033;42.648;23.292;2023-01-08T01:41:01;94328.97;;;3.22;52.18
30935;BME280;51033;42.648;23.292;2023-01-08T01:43:38;94319.25;;;3.23;52.29
30935;BME280;51033;42.648;23.292;2023-01-08T01:46:12;94312.38;;;3.17;52.12
30935;BME280;51033;42.648;23.292;2023-01-08T01:48:41;94298.88;;;2.98;52.45
30935;BME280;51033;42.648;23.292;2023-01-08T01:51:06;94320.72;;;3.04;52.81
30935;BME280;51033;42.648;23.292;2023-01-08T01:53:34;94318.28;;;2.97;52.91
30935;BME280;51033;42.648;23.292;2023-01-08T01:56:02;94299.38;;;3.00;52.64
30935;BME280;51033;42.648;23.292;2023-01-08T01:58:29;94315.22;;;3.10;52.56
30935;BME280;51033;42.648;23.292;2023-01-08T02:00:57;94293.28;;;2.89;52.62
30935;BME280;51033;42.648;23.292;2023-01-08T02:03:29;94316.22;;;3.04;52.50
30935;BME280;51033;42.648;23.292;2023-01-08T02:06:35;94318.56;;;3.01;52.48
30935;BME280;51033;42.648;23.292;2023-01-08T02:09:13;94294.78;;;2.80;52.82
30935;BME280;51033;42.648;23.292;2023-01-08T02:14:58;94286.19;;;2.90;52.54
30935;BME280;51033;42.648;23.292;2023-01-08T02:20:07;94284.41;;;2.59;53.08
30935;BME280;51033;42.648;23.292;2023-01-08T02:27:57;94265.44;;;2.51;52.98
30935;BME280;51033;42.648;23.292;2023-01-08T02:30:24;94287.44;;;2.77;52.89
30935;BME280;51033;42.648;23.292;2023-01-08T02:32:50;94282.84;;;2.63;53.23
30935;BME280;51033;42.648;23.292;2023-01-08T02:35:15;94287.66;;;2.76;53.18
30935;BME280;51033;42.648;23.292;2023-01-08T02:37:41;94291.28;;;2.70;53.17
30935;BME280;51033;42.648;23.292;2023-01-08T02:42:56;94291.09;;;2.76;52.92
30935;BME280;51033;42.648;23.292;2023-01-08T02:48:12;94250.38;;;2.37;53.39
30935;BME280;51033;42.648;23.292;2023-01-08T02:50:55;94279.13;;;2.53;53.52
30935;BME280;51033;42.648;23.292;2023-01-08T02:53:28;94278.59;;;2.57;53.48
30935;BME280;51033;42.648;23.292;2023-01-08T02:56:08;94254.41;;;2.49;53.47
30935;BME280;51033;42.648;23.292;2023-01-08T02:58:36;94264.91;;;2.49;53.47
30935;BME280;51033;42.648;23.292;2023-01-08T03:01:05;94269.97;;;2.61;53.39
30935;BME280;51033;42.648;23.292;2023-01-08T03:03:33;94275.19;;;2.56;53.36
30935;BME280;51033;42.648;23.292;2023-01-08T03:06:05;94230.84;;;2.23;53.70
30935;BME280;51033;42.648;23.292;2023-01-08T03:08:33;94271.97;;;2.44;53.80
30935;BME280;51033;42.648;23.292;2023-01-08T03:11:05;94288.78;;;2.48;54.08
30935;BME280;51033;42.648;23.292;2023-01-08T03:13:43;94290.28;;;2.39;54.28
30935;BME280;51033;42.648;23.292;2023-01-08T03:16:14;94283.72;;;2.41;54.11
30935;BME280;51033;42.648;23.292;2023-01-08T03:18:45;94287.75;;;2.49;53.77
30935;BME280;51033;42.648;23.292;2023-01-08T03:21:14;94284.53;;;2.42;53.96
30935;BME280;51033;42.648;23.292;2023-01-08T03:23:41;94294.03;;;2.48;53.98
30935;BME280;51033;42.648;23.292;2023-01-08T03:26:11;94277.78;;;2.51;53.85
30935;BME280;51033;42.648;23.292;2023-01-08T03:28:45;94290.16;;;2.56;53.59
30935;BME280;51033;42.648;23.292;2023-01-08T03:31:13;94286.72;;;2.55;53.62
30935;BME280;51033;42.648;23.292;2023-01-08T03:33:42;94289.34;;;2.55;53.57
30935;BME280;51033;42.648;23.292;2023-01-08T03:36:11;94290.66;;;2.52;53.96
30935;BME280;51033;42.648;23.292;2023-01-08T03:38:41;94287.53;;;2.56;53.32
30935;BME280;51033;42.648;23.292;2023-01-08T03:41:11;94285.91;;;2.49;53.76
30935;BME280;51033;42.648;23.292;2023-01-08T03:43:38;94270.56;;;2.36;53.66
30935;BME280;51033;42.648;23.292;2023-01-08T03:46:08;94284.53;;;2.42;53.70
30935;BME280;51033;42.648;23.292;2023-01-08T03:48:34;94282.94;;;2.41;54.01
30935;BME280;51033;42.648;23.292;2023-01-08T03:51:01;94285.91;;;2.49;53.82
30935;BME280;51033;42.648;23.292;2023-01-08T03:53:26;94267.41;;;2.34;53.73
30935;BME280;51033;42.648;23.292;2023-01-08T03:55:52;94286.91;;;2.43;53.51
30935;BME280;51033;42.648;23.292;2023-01-08T03:58:17;94273.47;;;2.35;53.38
30935;BME280;51033;42.648;23.292;2023-01-08T04:00:43;94280.13;;;2.47;53.44
30935;BME280;51033;42.648;23.292;2023-01-08T04:03:08;94285.84;;;2.39;53.87
30935;BME280;51033;42.648;23.292;2023-01-08T04:05:33;94284.44;;;2.32;54.04
30935;BME280;51033;42.648;23.292;2023-01-08T04:07:59;94283.66;;;2.31;54.03
30935;BME280;51033;42.648;23.292;2023-01-08T04:10:25;94279.41;;;2.25;54.21
30935;BME280;51033;42.648;23.292;2023-01-08T04:12:50;94280.50;;;2.29;54.17
30935;BME280;51033;42.648;23.292;2023-01-08T04:15:16;94282.56;;;2.27;54.35
30935;BME280;51033;42.648;23.292;2023-01-08T04:17:42;94280.00;;;2.32;54.04
30935;BME280;51033;42.648;23.292;2023-01-08T04:20:08;94286.88;;;2.38;53.96
30935;BME280;51033;42.648;23.292;2023-01-08T04:22:33;94278.03;;;2.18;54.15
30935;BME280;51033;42.648;23.292;2023-01-08T04:24:59;94279.22;;;2.05;54.57
30935;BME280;51033;42.648;23.292;2023-01-08T04:27:24;94282.78;;;2.21;54.33
30935;BME280;51033;42.648;23.292;2023-01-08T04:29:49;94287.81;;;2.27;54.13
30935;BME280;51033;42.648;23.292;2023-01-08T04:32:15;94291.56;;;2.36;53.80
30935;BME280;51033;42.648;23.292;2023-01-08T04:34:40;94273.63;;;2.23;53.62
30935;BME280;51033;42.648;23.292;2023-01-08T04:37:05;94274.38;;;2.19;54.10
30935;BME280;51033;42.648;23.292;2023-01-08T04:39:31;94289.97;;;2.30;54.05
30935;BME280;51033;42.648;23.292;2023-01-08T04:41:56;94284.63;;;2.20;54.25
30935;BME280;51033;42.648;23.292;2023-01-08T04:44:22;94269.22;;;2.02;54.41
30935;BME280;51033;42.648;23.292;2023-01-08T04:46:47;94275.66;;;2.16;54.01
30935;BME280;51033;42.648;23.292;2023-01-08T04:49:12;94280.94;;;2.21;54.32
30935;BME280;51033;42.648;23.292;2023-01-08T04:51:38;94287.81;;;2.27;54.13
30935;BME280;51033;42.648;23.292;2023-01-08T04:54:03;94280.94;;;2.21;54.32
30935;BME280;51033;42.648;23.292;2023-01-08T04:56:29;94262.59;;;1.94;54.50
30935;BME280;51033;42.648;23.292;2023-01-08T04:58:55;94277.47;;;2.11;54.35
30935;BME280;51033;42.648;23.292;2023-01-08T05:01:22;94279.81;;;2.12;54.28
30935;BME280;51033;42.648;23.292;2023-01-08T05:03:53;94293.97;;;2.11;54.42
30935;BME280;51033;42.648;23.292;2023-01-08T05:06:18;94296.16;;;2.19;54.05
30935;BME280;51033;42.648;23.292;2023-01-08T05:08:43;94279.53;;;2.08;54.15
30935;BME280;51033;42.648;23.292;2023-01-08T05:11:09;94285.63;;;2.14;54.18
30935;BME280;51033;42.648;23.292;2023-01-08T05:13:34;94310.56;;;2.17;54.13
30935;BME280;51033;42.648;23.292;2023-01-08T05:16:00;94288.66;;;2.06;54.21
30935;BME280;51033;42.648;23.292;2023-01-08T05:18:27;94291.16;;;2.18;54.12
30935;BME280;51033;42.648;23.292;2023-01-08T05:20:52;94286.59;;;2.08;54.11
30935;BME280;51033;42.648;23.292;2023-01-08T05:23:18;94272.31;;;1.94;54.55
30935;BME280;51033;42.648;23.292;2023-01-08T05:25:43;94290.56;;;2.11;54.51
30935;BME280;51033;42.648;23.292;2023-01-08T05:28:08;94298.69;;;2.09;54.47
30935;BME280;51033;42.648;23.292;2023-01-08T05:30:35;94283.41;;;2.06;54.03
30935;BME280;51033;42.648;23.292;2023-01-08T05:33:01;94275.47;;;1.96;54.38
30935;BME280;51033;42.648;23.292;2023-01-08T05:35:26;94296.41;;;1.91;54.47
30935;BME280;51033;42.648;23.292;2023-01-08T05:37:52;94286.22;;;1.94;54.54
30935;BME280;51033;42.648;23.292;2023-01-08T05:40:17;94281.50;;;1.96;54.45
30935;BME280;51033;42.648;23.292;2023-01-08T05:42:42;94302.28;;;2.03;54.65
30935;BME280;51033;42.648;23.292;2023-01-08T05:45:08;94284.84;;;1.92;54.85
30935;BME280;51033;42.648;23.292;2023-01-08T05:47:34;94310.56;;;1.90;54.60
30935;BME280;51033;42.648;23.292;2023-01-08T05:49:59;94293.94;;;1.84;54.46
30935;BME280;51033;42.648;23.292;2023-01-08T05:52:25;94300.53;;;1.87;54.48
30935;BME280;51033;42.648;23.292;2023-01-08T05:54:51;94304.44;;;1.84;54.77
30935;BME280;51033;42.648;23.292;2023-01-08T05:57:16;94285.78;;;1.81;54.94
30935;BME280;51033;42.648;23.292;2023-01-08T05:59:42;94304.09;;;1.76;54.95
30935;BME280;51033;42.648;23.292;2023-01-08T06:02:07;94287.09;;;1.56;55.20
30935;BME280;51033;42.648;23.292;2023-01-08T06:04:33;94288.97;;;1.61;55.26
30935;BME280;51033;42.648;23.292;2023-01-08T06:06:58;94294.53;;;1.64;55.16
30935;BME280;51033;42.648;23.292;2023-01-08T06:09:24;94299.19;;;1.62;54.98
30935;BME280;51033;42.648;23.292;2023-01-08T06:11:49;94309.16;;;1.60;55.38
30935;BME280;51033;42.648;23.292;2023-01-08T06:14:15;94298.72;;;1.65;55.05
30935;BME280;51033;42.648;23.292;2023-01-08T06:16:44;94267.22;;;1.39;55.32
30935;BME280;51033;42.648;23.292;2023-01-08T06:19:10;94312.25;;;1.57;55.29
30935;BME280;51033;42.648;23.292;2023-01-08T06:21:36;94299.69;;;1.59;55.44
30935;BME280;51033;42.648;23.292;2023-01-08T06:24:05;94308.72;;;1.68;55.41
30935;BME280;51033;42.648;23.292;2023-01-08T06:26:30;94288.38;;;1.54;55.32
30935;BME280;51033;42.648;23.292;2023-01-08T06:28:56;94292.00;;;1.53;55.67
30935;BME280;51033;42.648;23.292;2023-01-08T06:31:21;94315.50;;;1.64;55.62
30935;BME280;51033;42.648;23.292;2023-01-08T06:33:47;94300.84;;;1.68;55.43
30935;BME280;51033;42.648;23.292;2023-01-08T06:36:12;94284.34;;;1.46;55.70
30935;BME280;51033;42.648;23.292;2023-01-08T06:38:40;94296.97;;;1.49;55.74
30935;BME280;51033;42.648;23.292;2023-01-08T06:41:08;94333.91;;;1.70;55.14
30935;BME280;51033;42.648;23.292;2023-01-08T06:43:35;94317.16;;;1.71;55.53
30935;BME280;51033;42.648;23.292;2023-01-08T06:46:00;94327.13;;;1.74;55.63
30935;BME280;51033;42.648;23.292;2023-01-08T06:48:26;94311.97;;;1.54;55.91
30935;BME280;51033;42.648;23.292;2023-01-08T06:50:52;94336.09;;;1.78;55.95
30935;BME280;51033;42.648;23.292;2023-01-08T06:53:18;94328.03;;;1.84;55.76
30935;BME280;51033;42.648;23.292;2023-01-08T06:55:43;94333.66;;;1.93;56.12
30935;BME280;51033;42.648;23.292;2023-01-08T06:58:10;94320.50;;;1.88;55.87
30935;BME280;51033;42.648;23.292;2023-01-08T07:00:37;94316.34;;;1.92;55.78
30935;BME280;51033;42.648;23.292;2023-01-08T07:03:03;94339.03;;;2.03;55.88
30935;BME280;51033;42.648;23.292;2023-01-08T07:05:28;94328.47;;;1.98;55.88
30935;BME280;51033;42.648;23.292;2023-01-08T07:07:54;94329.63;;;2.07;55.89
30935;BME280;51033;42.648;23.292;2023-01-08T07:10:19;94334.44;;;2.15;55.84
30935;BME280;51033;42.648;23.292;2023-01-08T07:12:45;94337.13;;;2.20;55.70
30935;BME280;51033;42.648;23.292;2023-01-08T07:15:10;94350.34;;;2.30;56.28
30935;BME280;51033;42.648;23.292;2023-01-08T07:17:36;94331.31;;;2.18;56.47
30935;BME280;51033;42.648;23.292;2023-01-08T07:20:03;94354.53;;;2.31;56.37
30935;BME280;51033;42.648;23.292;2023-01-08T07:22:29;94330.09;;;2.31;56.39
30935;BME280;51033;42.648;23.292;2023-01-08T07:24:54;94333.63;;;2.41;56.03
30935;BME280;51033;42.648;23.292;2023-01-08T07:27:20;94350.31;;;2.57;56.50
30935;BME280;51033;42.648;23.292;2023-01-08T07:29:45;94338.72;;;2.26;57.62
30935;BME280;51033;42.648;23.292;2023-01-08T07:32:11;94336.56;;;2.45;57.56
30935;BME280;51033;42.648;23.292;2023-01-08T07:34:36;94328.28;;;2.31;57.37
30935;BME280;51033;42.648;23.292;2023-01-08T07:37:02;94347.34;;;2.48;57.41
30935;BME280;51033;42.648;23.292;2023-01-08T07:39:28;94348.22;;;2.59;57.64
30935;BME280;51033;42.648;23.292;2023-01-08T07:41:53;94352.25;;;2.72;57.30
30935;BME280;51033;42.648;23.292;2023-01-08T07:44:18;94353.13;;;2.82;57.05
30935;BME280;51033;42.648;23.292;2023-01-08T07:46:44;94350.31;;;2.57;57.85
30935;BME280;51033;42.648;23.292;2023-01-08T07:49:10;94357.88;;;2.85;57.43
30935;BME280;51033;42.648;23.292;2023-01-08T07:51:35;94354.56;;;3.00;57.23
30935;BME280;51033;42.648;23.292;2023-01-08T07:54:01;94344.47;;;2.82;57.28
30935;BME280;51033;42.648;23.292;2023-01-08T07:56:26;94356.75;;;2.44;59.04
30935;BME280;51033;42.648;23.292;2023-01-08T07:58:52;94355.22;;;2.22;60.41
30935;BME280;51033;42.648;23.292;2023-01-08T08:01:17;94335.25;;;1.94;61.29
30935;BME280;51033;42.648;23.292;2023-01-08T08:03:43;94364.44;;;2.24;61.72
30935;BME280;51033;42.648;23.292;2023-01-08T08:06:08;94346.47;;;1.46;63.97
30935;BME280;51033;42.648;23.292;2023-01-08T08:08:34;94335.72;;;2.13;62.01
30935;BME280;51033;42.648;23.292;2023-01-08T08:11:00;94359.44;;;2.49;60.38
30935;BME280;51033;42.648;23.292;2023-01-08T08:13:25;94370.03;;;2.33;61.80
30935;BME280;51033;42.648;23.292;2023-01-08T08:15:51;94342.66;;;2.56;59.96
30935;BME280;51033;42.648;23.292;2023-01-08T08:18:17;94357.63;;;2.87;59.15
30935;BME280;51033;42.648;23.292;2023-01-08T08:20:42;94352.09;;;2.51;59.74
30935;BME280;51033;42.648;23.292;2023-01-08T08:23:10;94320.72;;;2.35;60.63
30935;BME280;51033;42.648;23.292;2023-01-08T08:25:40;94356.41;;;3.00;59.55
30935;BME280;51033;42.648;23.292;2023-01-08T08:28:06;94360.13;;;3.09;58.86
30935;BME280;51033;42.648;23.292;2023-01-08T08:30:34;94357.31;;;3.15;58.90
30935;BME280;51033;42.648;23.292;2023-01-08T08:33:01;94330.00;;;2.84;58.83
30935;BME280;51033;42.648;23.292;2023-01-08T08:35:28;94350.97;;;2.42;61.42
30935;BME280;51033;42.648;23.292;2023-01-08T08:37:55;94354.50;;;2.90;60.40
30935;BME280;51033;42.648;23.292;2023-01-08T08:40:20;94354.94;;;2.77;60.18
30935;BME280;51033;42.648;23.292;2023-01-08T08:42:46;94341.31;;;2.48;61.10
30935;BME280;51033;42.648;23.292;2023-01-08T08:45:11;94352.97;;;2.99;60.56
30935;BME280;51033;42.648;23.292;2023-01-08T08:47:37;94361.88;;;2.61;62.17
30935;BME280;51033;42.648;23.292;2023-01-08T08:50:03;94364.38;;;2.19;63.49
30935;BME280;51033;42.648;23.292;2023-01-08T08:52:31;94359.53;;;2.65;62.86
30935;BME280;51033;42.648;23.292;2023-01-08T08:54:56;94337.50;;;2.66;61.10
30935;BME280;51033;42.648;23.292;2023-01-08T08:57:26;94358.25;;;2.08;63.61
30935;BME280;51033;42.648;23.292;2023-01-08T08:59:51;94363.66;;;2.56;62.62
30935;BME280;51033;42.648;23.292;2023-01-08T09:02:17;94367.53;;;3.12;60.41
30935;BME280;51033;42.648;23.292;2023-01-08T09:04:43;94334.38;;;3.48;58.07
30935;BME280;51033;42.648;23.292;2023-01-08T09:07:08;94341.84;;;3.71;57.22
30935;BME280;51033;42.648;23.292;2023-01-08T09:09:33;94350.72;;;3.60;56.87
30935;BME280;51033;42.648;23.292;2023-01-08T09:11:59;94353.28;;;3.50;58.33
30935;BME280;51033;42.648;23.292;2023-01-08T09:14:25;94355.22;;;3.17;59.00
30935;BME280;51033;42.648;23.292;2023-01-08T09:16:50;94351.72;;;3.49;58.47
30935;BME280;51033;42.648;23.292;2023-01-08T09:19:15;94350.00;;;3.22;59.56
30935;BME280;51033;42.648;23.292;2023-01-08T09:21:41;94324.78;;;3.26;58.71
30935;BME280;51033;42.648;23.292;2023-01-08T09:24:07;94313.66;;;3.66;57.42
30935;BME280;51033;42.648;23.292;2023-01-08T09:26:32;94331.94;;;4.08;56.41
30935;BME280;51033;42.648;23.292;2023-01-08T09:28:58;94326.66;;;4.03;56.94
30935;BME280;51033;42.648;23.292;2023-01-08T09:31:25;94312.97;;;3.91;56.31
30935;BME280;51033;42.648;23.292;2023-01-08T09:33:50;94307.16;;;3.94;56.71
30935;BME280;51033;42.648;23.292;2023-01-08T09:36:16;94302.41;;;3.24;58.61
30935;BME280;51033;42.648;23.292;2023-01-08T09:38:42;94315.59;;;3.96;57.07
30935;BME280;51033;42.648;23.292;2023-01-08T09:41:16;94319.09;;;3.50;58.18
30935;BME280;51033;42.648;23.292;2023-01-08T09:43:45;94294.94;;;3.58;57.96
30935;BME280;51033;42.648;23.292;2023-01-08T09:46:14;94290.00;;;3.71;57.48
30935;BME280;51033;42.648;23.292;2023-01-08T09:48:40;94295.13;;;4.23;56.31
30935;BME280;51033;42.648;23.292;2023-01-08T09:51:12;94307.28;;;4.35;55.59
30935;BME280;51033;42.648;23.292;2023-01-08T09:53:38;94301.75;;;4.72;54.80
30935;BME280;51033;42.648;23.292;2023-01-08T09:56:11;94282.50;;;5.01;53.18
30935;BME280;51033;42.648;23.292;2023-01-08T09:58:52;94278.78;;;5.18;53.10
30935;BME280;51033;42.648;23.292;2023-01-08T10:01:37;94276.59;;;5.40;52.67
30935;BME280;51033;42.648;23.292;2023-01-08T10:04:22;94267.19;;;5.13;52.01
30935;BME280;51033;42.648;23.292;2023-01-08T10:07:05;94271.13;;;5.16;52.64
30935;BME280;51033;42.648;23.292;2023-01-08T10:09:35;94266.38;;;5.23;52.50
30935;BME280;51033;42.648;23.292;2023-01-08T10:12:03;94261.56;;;5.40;51.87
30935;BME280;51033;42.648;23.292;2023-01-08T10:14:33;94250.31;;;4.94;52.82
30935;BME280;51033;42.648;23.292;2023-01-08T10:17:02;94269.19;;;5.47;51.72
30935;BME280;51033;42.648;23.292;2023-01-08T10:19:29;94260.09;;;5.73;51.14
30935;BME280;51033;42.648;23.292;2023-01-08T10:21:55;94264.22;;;5.94;50.29
30935;BME280;51033;42.648;23.292;2023-01-08T10:24:36;94262.59;;;5.44;51.08
30935;BME280;51033;42.648;23.292;2023-01-08T10:27:17;94242.75;;;5.57;50.98
30935;BME280;51033;42.648;23.292;2023-01-08T10:29:44;94247.53;;;5.50;51.01
30935;BME280;51033;42.648;23.292;2023-01-08T10:32:22;94246.47;;;5.51;51.09
30935;BME280;51033;42.648;23.292;2023-01-08T10:34:52;94248.25;;;5.66;51.25
30935;BME280;51033;42.648;23.292;2023-01-08T10:37:28;94221.75;;;5.37;51.43
30935;BME280;51033;42.648;23.292;2023-01-08T10:39:57;94222.94;;;5.65;50.26
30935;BME280;51033;42.648;23.292;2023-01-08T10:42:24;94233.75;;;6.07;49.78
30935;BME280;51033;42.648;23.292;2023-01-08T10:44:55;94204.75;;;6.02;48.96
30935;BME280;51033;42.648;23.292;2023-01-08T10:47:22;94221.72;;;6.35;48.59
30935;BME280;51033;42.648;23.292;2023-01-08T10:49:49;94197.22;;;6.24;48.94
30935;BME280;51033;42.648;23.292;2023-01-08T10:52:31;94211.91;;;6.40;48.78
30935;BME280;51033;42.648;23.292;2023-01-08T10:55:26;94221.03;;;6.19;49.14
30935;BME280;51033;42.648;23.292;2023-01-08T10:57:54;94218.44;;;6.48;48.52
30935;BME280;51033;42.648;23.292;2023-01-08T11:00:22;94205.13;;;6.87;47.89
30935;BME280;51033;42.648;23.292;2023-01-08T11:02:47;94186.22;;;6.75;47.98
30935;BME280;51033;42.648;23.292;2023-01-08T11:05:14;94203.44;;;6.96;47.46
30935;BME280;51033;42.648;23.292;2023-01-08T11:07:40;94190.97;;;7.02;47.22
30935;BME280;51033;42.648;23.292;2023-01-08T11:10:20;94194.91;;;7.04;47.10
30935;BME280;51033;42.648;23.292;2023-01-08T11:12:46;94173.06;;;7.17;46.58
30935;BME280;51033;42.648;23.292;2023-01-08T11:17:42;94177.66;;;7.30;46.57
30935;BME280;51033;42.648;23.292;2023-01-08T11:22:45;94187.22;;;7.69;45.68
30935;BME280;51033;42.648;23.292;2023-01-08T11:25:16;94194.13;;;7.89;45.32
30935;BME280;51033;42.648;23.292;2023-01-08T11:27:45;94193.69;;;6.39;47.88
30935;BME280;51033;42.648;23.292;2023-01-08T11:30:14;94190.75;;;6.98;47.02
30935;BME280;51033;42.648;23.292;2023-01-08T11:32:42;94182.94;;;7.30;46.65
30935;BME280;51033;42.648;23.292;2023-01-08T11:37:58;94167.94;;;7.26;46.44
30935;BME280;51033;42.648;23.292;2023-01-08T11:40:39;94178.19;;;7.51;46.24
30935;BME280;51033;42.648;23.292;2023-01-08T11:43:10;94172.28;;;7.78;47.11
30935;BME280;51033;42.648;23.292;2023-01-08T11:59:35;94165.13;;;6.94;47.47
30935;BME280;51033;42.648;23.292;2023-01-08T12:07:33;94139.28;;;7.33;46.73
30935;BME280;51033;42.648;23.292;2023-01-08T12:27:11;94141.38;;;7.12;47.18
30935;BME280;51033;42.648;23.292;2023-01-08T12:32:33;94121.44;;;7.20;47.06
30935;BME280;51033;42.648;23.292;2023-01-08T12:37:51;94121.72;;;8.12;45.39
30935;BME280;51033;42.648;23.292;2023-01-08T12:42:49;94118.03;;;8.59;44.92
30935;BME280;51033;42.648;23.292;2023-01-08T12:45:26;94124.91;;;8.87;43.93
30935;BME280;51033;42.648;23.292;2023-01-08T12:48:06;94123.47;;;8.95;44.27
30935;BME280;51033;42.648;23.292;2023-01-08T12:51:06;94118.63;;;9.11;43.41
30935;BME280;51033;42.648;23.292;2023-01-08T12:53:39;94106.19;;;9.11;43.59
30935;BME280;51033;42.648;23.292;2023-01-08T12:56:22;94103.91;;;9.05;43.33
30935;BME280;51033;42.648;23.292;2023-01-08T13:01:48;94115.22;;;9.24;44.50
30935;BME280;51033;42.648;23.292;2023-01-08T13:04:14;94114.91;;;9.25;42.79
30935;BME280;51033;42.648;23.292;2023-01-08T13:06:52;94099.09;;;9.34;43.37
30935;BME280;51033;42.648;23.292;2023-01-08T13:09:23;94107.41;;;9.41;43.26
30935;BME280;51033;42.648;23.292;2023-01-08T13:11:54;94101.53;;;9.30;43.13
30935;BME280;51033;42.648;23.292;2023-01-08T13:14:21;94084.22;;;9.06;44.07
30935;BME280;51033;42.648;23.292;2023-01-08T13:17:00;94098.22;;;8.84;44.16
30935;BME280;51033;42.648;23.292;2023-01-08T13:19:29;94100.75;;;8.89;44.10
30935;BME280;51033;42.648;23.292;2023-01-08T13:21:57;94061.28;;;8.74;43.82
30935;BME280;51033;42.648;23.292;2023-01-08T13:29:49;94101.34;;;8.86;43.12
30935;BME280;51033;42.648;23.292;2023-01-08T13:35:19;94085.59;;;8.48;43.92
30935;BME280;51033;42.648;23.292;2023-01-08T13:38:03;94098.84;;;8.48;43.81
30935;BME280;51033;42.648;23.292;2023-01-08T13:43:39;94096.28;;;8.30;43.89
30935;BME280;51033;42.648;23.292;2023-01-08T13:46:12;94092.03;;;8.15;43.93
30935;BME280;51033;42.648;23.292;2023-01-08T13:48:53;94103.19;;;8.12;43.98
30935;BME280;51033;42.648;23.292;2023-01-08T13:54:15;94099.63;;;8.03;43.99
30935;BME280;51033;42.648;23.292;2023-01-08T13:56:44;94099.50;;;7.94;43.82
30935;BME280;51033;42.648;23.292;2023-01-08T13:59:40;94102.31;;;7.84;44.08
30935;BME280;51033;42.648;23.292;2023-01-08T14:02:30;94103.81;;;7.71;44.08
30935;BME280;51033;42.648;23.292;2023-01-08T14:04:57;94079.75;;;7.49;44.02
30935;BME280;51033;42.648;23.292;2023-01-08T14:07:23;94106.31;;;7.63;44.02
30935;BME280;51033;42.648;23.292;2023-01-08T14:09:50;94091.94;;;7.50;43.97
30935;BME280;51033;42.648;23.292;2023-01-08T14:12:23;94081.88;;;7.34;44.07
30935;BME280;51033;42.648;23.292;2023-01-08T14:14:55;94091.66;;;7.33;44.39
30935;BME280;51033;42.648;23.292;2023-01-08T14:17:28;94093.56;;;7.27;44.66
30935;BME280;51033;42.648;23.292;2023-01-08T14:19:55;94096.06;;;7.19;45.35
30935;BME280;51033;42.648;23.292;2023-01-08T14:22:28;94079.63;;;7.03;45.19
30935;BME280;51033;42.648;23.292;2023-01-08T14:24:57;94098.34;;;7.07;45.57
30935;BME280;51033;42.648;23.292;2023-01-08T14:27:26;94088.72;;;6.92;45.76
30935;BME280;51033;42.648;23.292;2023-01-08T14:29:52;94070.78;;;6.65;46.14
30935;BME280;51033;42.648;23.292;2023-01-08T14:32:21;94089.91;;;6.81;45.95